createdAt,value
2018-12-09T00:02:27.135Z,98549.06
2018-12-09T00:04:56.312Z,98553.08
2018-12-09T00:07:25.559Z,98590.81
2018-12-09T00:09:54.667Z,98613.19
2018-12-09T00:12:24.032Z,98613.50
2018-12-09T00:14:53.313Z,98597.87
2018-12-09T00:17:27.848Z,98599.95
2018-12-09T00:19:56.760Z,98593.17
2018-12-09T00:22:25.946Z,98582.88
2018-12-09T00:24:55.193Z,98578.39
2018-12-09T00:27:24.441Z,98571.71
2018-12-09T00:29:53.684Z,98577.51
2018-12-09T00:32:22.807Z,98586.31
2018-12-09T00:34:51.991Z,98588.12
2018-12-09T00:37:20.908Z,98605.56
2018-12-09T00:39:49.847Z,98592.61
2018-12-09T00:42:18.930Z,98594.59
2018-12-09T00:44:47.846Z,98598.41
2018-12-09T00:47:16.788Z,98607.16
2018-12-09T00:49:45.657Z,98605.03
2018-12-09T00:52:14.635Z,98602.31
2018-12-09T00:54:43.587Z,98612.30
2018-12-09T00:57:12.507Z,98614.83
2018-12-09T00:59:41.409Z,98605.74
2018-12-09T01:02:10.535Z,98589.43
2018-12-09T01:04:39.465Z,98593.66
2018-12-09T01:07:08.644Z,98594.36
2018-12-09T01:09:37.559Z,98579.02
2018-12-09T01:12:06.541Z,98582.16
2018-12-09T01:14:35.483Z,98571.67
2018-12-09T01:17:04.437Z,98583.68
2018-12-09T01:19:33.358Z,98577.36
2018-12-09T01:22:02.289Z,98581.63
2018-12-09T01:24:31.160Z,98579.27
2018-12-09T01:27:00.128Z,98579.45
2018-12-09T01:29:29.020Z,98586.52
2018-12-09T01:31:57.971Z,98587.45
2018-12-09T01:34:26.863Z,98576.03
2018-12-09T01:36:55.748Z,98574.34
2018-12-09T01:39:24.712Z,98571.88
2018-12-09T01:41:53.619Z,98569.14
2018-12-09T01:44:22.559Z,98554.69
2018-12-09T01:46:51.453Z,98582.70
2018-12-09T01:49:20.391Z,98573.55
2018-12-09T01:51:49.271Z,98566.30
2018-12-09T01:54:25.244Z,98569.52
2018-12-09T01:56:54.139Z,98584.16
2018-12-09T01:59:23.328Z,98578.13
2018-12-09T02:01:52.279Z,98578.52
2018-12-09T02:04:21.577Z,98577.62
2018-12-09T02:06:50.468Z,98585.19
2018-12-09T02:09:19.400Z,98588.94
2018-12-09T02:11:48.299Z,98597.22
2018-12-09T02:14:17.240Z,98591.69
2018-12-09T02:16:46.158Z,98595.78
2018-12-09T02:19:18.460Z,98596.28
2018-12-09T02:21:47.677Z,98615.31
2018-12-09T02:24:16.860Z,98622.28
2018-12-09T02:26:45.739Z,98633.35
2018-12-09T02:29:14.672Z,98622.22
2018-12-09T02:31:43.588Z,98628.02
2018-12-09T02:34:12.541Z,98613.58
2018-12-09T02:36:41.463Z,98608.96
2018-12-09T02:39:11.698Z,98609.64
2018-12-09T02:41:40.628Z,98623.60
2018-12-09T02:44:09.600Z,98641.86
2018-12-09T02:46:38.932Z,98620.63
2018-12-09T02:49:07.875Z,98619.59
2018-12-09T02:51:36.774Z,98620.92
2018-12-09T02:54:05.664Z,98620.94
2018-12-09T02:56:34.675Z,98617.47
2018-12-09T02:59:03.580Z,98616.52
2018-12-09T03:01:32.520Z,98618.00
2018-12-09T03:04:01.406Z,98612.52
2018-12-09T03:06:30.344Z,98612.37
2018-12-09T03:08:59.223Z,98628.31
2018-12-09T03:11:28.168Z,98636.60
2018-12-09T03:13:57.091Z,98632.31
2018-12-09T03:16:26.288Z,98646.55
2018-12-09T03:18:55.679Z,98661.64
2018-12-09T03:21:24.830Z,98668.45
2018-12-09T03:23:53.999Z,98657.14
2018-12-09T03:26:23.220Z,98654.28
2018-12-09T03:28:52.129Z,98643.86
2018-12-09T03:31:21.061Z,98637.67
2018-12-09T03:33:50.048Z,98649.84
2018-12-09T03:36:19.297Z,98664.41
2018-12-09T03:38:48.344Z,98668.75
2018-12-09T03:41:17.808Z,98673.06
2018-12-09T03:43:46.999Z,98676.64
2018-12-09T03:46:16.180Z,98662.17
2018-12-09T03:48:45.242Z,98659.30
2018-12-09T03:51:14.507Z,98654.69
2018-12-09T03:53:43.769Z,98667.09
2018-12-09T03:56:12.992Z,98686.52
2018-12-09T03:58:42.160Z,98677.85
2018-12-09T04:01:11.307Z,98643.26
2018-12-09T04:03:40.663Z,98624.70
2018-12-09T04:06:09.813Z,98616.36
2018-12-09T04:08:38.947Z,98661.55
2018-12-09T04:11:08.023Z,98687.39
2018-12-09T04:13:37.183Z,98666.45
2018-12-09T04:16:06.248Z,98674.66
2018-12-09T04:18:35.256Z,98665.11
2018-12-09T04:21:04.324Z,98669.44
2018-12-09T04:23:33.340Z,98685.89
2018-12-09T04:26:04.172Z,98699.68
2018-12-09T04:28:33.180Z,98685.59
2018-12-09T04:31:02.091Z,98694.20
2018-12-09T04:33:31.029Z,98697.03
2018-12-09T04:35:59.930Z,98682.16
2018-12-09T04:38:28.860Z,98666.96
2018-12-09T04:40:57.739Z,98668.01
2018-12-09T04:43:26.684Z,98675.30
2018-12-09T04:45:55.636Z,98690.61
2018-12-09T04:48:24.575Z,98704.91
2018-12-09T04:50:53.506Z,98711.22
2018-12-09T04:53:22.440Z,98728.72
2018-12-09T04:55:51.362Z,98714.73
2018-12-09T04:58:20.315Z,98722.63
2018-12-09T05:00:57.476Z,98726.81
2018-12-09T05:03:26.384Z,98724.20
2018-12-09T05:05:55.283Z,98717.86
2018-12-09T05:08:24.256Z,98709.09
2018-12-09T05:10:53.142Z,98702.45
2018-12-09T05:13:22.069Z,98702.92
2018-12-09T05:15:50.988Z,98710.89
2018-12-09T05:18:19.916Z,98707.86
2018-12-09T05:20:49.270Z,98714.48
2018-12-09T05:23:18.192Z,98713.95
2018-12-09T05:25:47.146Z,98708.91
2018-12-09T05:28:16.078Z,98719.42
2018-12-09T05:30:45.008Z,98729.20
2018-12-09T05:33:13.941Z,98725.12
2018-12-09T05:35:42.840Z,98741.39
2018-12-09T05:38:11.731Z,98728.98
2018-12-09T05:40:40.985Z,98732.58
2018-12-09T05:43:10.259Z,98729.97
2018-12-09T05:45:39.153Z,98737.61
2018-12-09T05:48:08.127Z,98730.80
2018-12-09T05:50:37.011Z,98732.08
2018-12-09T05:53:05.959Z,98737.66
2018-12-09T05:55:34.835Z,98752.42
2018-12-09T05:58:03.780Z,98744.34
2018-12-09T06:00:32.748Z,98744.73
2018-12-09T06:03:01.671Z,98749.42
2018-12-09T06:05:30.612Z,98753.11
2018-12-09T06:07:59.502Z,98761.38
2018-12-09T06:10:31.474Z,98765.86
2018-12-09T06:13:00.414Z,98765.02
2018-12-09T06:15:29.371Z,98768.08
2018-12-09T06:17:58.719Z,98768.91
2018-12-09T06:20:28.014Z,98767.57
2018-12-09T06:22:57.170Z,98766.25
2018-12-09T06:25:26.416Z,98771.84
2018-12-09T06:27:55.561Z,98776.85
2018-12-09T06:30:24.824Z,98778.31
2018-12-09T06:32:53.971Z,98780.30
2018-12-09T06:35:23.221Z,98777.80
2018-12-09T06:37:52.603Z,98780.30
2018-12-09T06:40:22.531Z,98786.92
2018-12-09T06:42:51.659Z,98786.43
2018-12-09T06:45:20.949Z,98774.98
2018-12-09T06:47:50.295Z,98780.68
2018-12-09T06:50:19.423Z,98783.61
2018-12-09T06:52:48.573Z,98779.78
2018-12-09T06:55:17.825Z,98780.84
2018-12-09T06:57:46.973Z,98790.45
2018-12-09T07:00:16.107Z,98771.08
2018-12-09T07:02:45.420Z,98793.71
2018-12-09T07:05:14.629Z,98784.42
2018-12-09T07:07:43.843Z,98793.11
2018-12-09T07:10:12.996Z,98808.66
2018-12-09T07:12:42.145Z,98809.31
2018-12-09T07:15:11.385Z,98810.95
2018-12-09T07:17:40.461Z,98815.03
2018-12-09T07:20:09.929Z,98832.83
2018-12-09T07:22:39.312Z,98831.61
2018-12-09T07:25:08.452Z,98835.23
2018-12-09T07:27:37.962Z,98851.84
2018-12-09T07:30:08.949Z,98843.52
2018-12-09T07:32:38.256Z,98859.94
2018-12-09T07:35:08.112Z,98870.69
2018-12-09T07:37:37.323Z,98862.30
2018-12-09T07:40:08.756Z,98860.23
2018-12-09T07:42:37.935Z,98866.73
2018-12-09T07:45:07.352Z,98872.09
2018-12-09T07:47:36.499Z,98883.68
2018-12-09T07:50:06.574Z,98893.67
2018-12-09T07:52:35.816Z,98895.17
2018-12-09T07:55:05.028Z,98892.94
2018-12-09T07:57:34.256Z,98902.89
2018-12-09T08:00:03.404Z,98926.52
2018-12-09T08:02:32.599Z,98917.59
2018-12-09T08:05:01.771Z,98917.72
2018-12-09T08:07:31.027Z,98922.25
2018-12-09T08:10:00.216Z,98918.64
2018-12-09T08:12:29.636Z,98928.02
2018-12-09T08:14:58.761Z,98933.60
2018-12-09T08:17:28.628Z,98930.88
2018-12-09T08:19:57.984Z,98936.37
2018-12-09T08:22:27.669Z,98928.73
2018-12-09T08:24:56.778Z,98940.52
2018-12-09T08:27:26.001Z,98941.52
2018-12-09T08:29:55.647Z,98941.73
2018-12-09T08:32:24.976Z,98949.83
2018-12-09T08:34:54.177Z,98952.80
2018-12-09T08:37:23.467Z,98959.28
2018-12-09T08:39:52.614Z,98959.84
2018-12-09T08:42:21.976Z,98961.17
2018-12-09T08:44:50.924Z,98954.96
2018-12-09T08:47:19.943Z,98958.45
2018-12-09T08:49:49.015Z,98961.11
2018-12-09T08:52:18.015Z,98947.56
2018-12-09T08:54:47.102Z,98959.50
2018-12-09T08:57:16.019Z,98962.83
2018-12-09T08:59:44.976Z,98963.83
2018-12-09T09:02:13.868Z,98966.83
2018-12-09T09:04:42.851Z,98962.99
2018-12-09T09:07:11.855Z,98961.78
2018-12-09T09:09:41.198Z,98960.78
2018-12-09T09:12:10.683Z,98961.10
2018-12-09T09:14:40.373Z,98967.16
2018-12-09T09:17:09.696Z,98966.16
2018-12-09T09:19:39.305Z,98961.50
2018-12-09T09:22:08.670Z,98953.14
2018-12-09T09:24:38.108Z,98965.98
2018-12-09T09:27:07.624Z,98968.86
2018-12-09T09:29:37.024Z,98970.52
2018-12-09T09:32:06.633Z,98960.89
2018-12-09T09:34:36.189Z,98970.19
2018-12-09T09:37:05.618Z,98974.85
2018-12-09T09:39:35.152Z,98966.20
2018-12-09T09:42:04.513Z,98969.04
2018-12-09T09:44:34.164Z,98969.45
2018-12-09T09:47:03.684Z,98968.61
2018-12-09T09:49:33.317Z,98973.59
2018-12-09T09:52:03.021Z,98975.62
2018-12-09T09:54:32.544Z,98964.95
2018-12-09T09:57:01.940Z,98969.00
2018-12-09T09:59:31.085Z,98957.83
2018-12-09T10:02:00.467Z,98962.66
2018-12-09T10:04:29.679Z,98960.00
2018-12-09T10:07:00.159Z,98952.16
2018-12-09T10:09:29.616Z,98945.03
2018-12-09T10:11:59.137Z,98952.62
2018-12-09T10:14:28.418Z,98956.64
2018-12-09T10:16:57.676Z,98953.67
2018-12-09T10:19:26.984Z,98954.67
2018-12-09T10:21:56.120Z,98957.80
2018-12-09T10:24:25.370Z,98948.67
2018-12-09T10:26:54.616Z,98958.17
2018-12-09T10:29:23.763Z,98956.34
2018-12-09T10:31:53.112Z,98954.37
2018-12-09T10:34:22.286Z,98957.19
2018-12-09T10:36:51.635Z,98950.36
2018-12-09T10:39:20.656Z,98938.73
2018-12-09T10:41:49.883Z,98945.72
2018-12-09T10:44:18.960Z,98931.38
2018-12-09T10:46:48.100Z,98932.38
2018-12-09T10:49:17.188Z,98928.22
2018-12-09T10:51:46.497Z,98934.52
2018-12-09T10:54:15.683Z,98937.67
2018-12-09T10:56:45.002Z,98942.34
2018-12-09T10:59:14.146Z,98942.01
2018-12-09T11:01:47.482Z,98935.88
2018-12-09T11:04:16.911Z,98930.38
2018-12-09T11:06:46.255Z,98943.70
2018-12-09T11:09:15.360Z,98933.71
2018-12-09T11:11:44.589Z,98921.10
2018-12-09T11:14:13.896Z,98940.54
2018-12-09T11:16:43.235Z,98935.87
2018-12-09T11:19:12.469Z,98944.51
2018-12-09T11:21:41.736Z,98945.11
2018-12-09T11:24:10.887Z,98945.94
2018-12-09T11:26:40.031Z,98911.80
2018-12-09T11:29:09.192Z,98957.36
2018-12-09T11:31:39.259Z,98925.77
2018-12-09T11:34:08.792Z,98913.95
2018-12-09T11:36:37.947Z,98938.58
2018-12-09T11:39:09.327Z,98956.56
2018-12-09T11:41:38.714Z,98943.56
2018-12-09T11:44:08.616Z,98945.23
2018-12-09T11:46:37.867Z,98943.28
2018-12-09T11:49:07.179Z,98940.13
2018-12-09T11:51:36.324Z,98947.33
2018-12-09T11:54:07.117Z,98943.37
2018-12-09T11:56:36.295Z,98944.70
2018-12-09T11:59:05.234Z,98938.55
2018-12-09T12:01:34.173Z,98940.11
2018-12-09T12:04:03.096Z,98939.84
2018-12-09T12:06:31.997Z,98941.52
2018-12-09T12:09:00.976Z,98938.52
2018-12-09T12:11:29.887Z,98937.66
2018-12-09T12:13:58.872Z,98934.03
2018-12-09T12:16:27.785Z,98940.84
2018-12-09T12:18:56.913Z,98943.49
2018-12-09T12:21:25.817Z,98942.99
2018-12-09T12:23:54.763Z,98944.36
2018-12-09T12:26:27.084Z,98945.04
2018-12-09T12:28:56.071Z,98938.05
2018-12-09T12:31:25.007Z,98937.05
2018-12-09T12:33:53.997Z,98931.53
2018-12-09T12:36:22.900Z,98929.72
2018-12-09T12:38:51.848Z,98932.73
2018-12-09T12:41:20.764Z,98924.73
2018-12-09T12:43:49.772Z,98925.20
2018-12-09T12:46:18.704Z,98923.02
2018-12-09T12:48:47.633Z,98921.23
2018-12-09T12:51:16.576Z,98916.26
2018-12-09T12:53:45.491Z,98923.17
2018-12-09T12:56:14.448Z,98924.13
2018-12-09T12:58:43.439Z,98928.09
2018-12-09T13:01:12.387Z,98942.79
2018-12-09T13:03:41.296Z,98938.14
2018-12-09T13:06:10.484Z,98938.62
2018-12-09T13:08:39.440Z,98938.02
2018-12-09T13:11:08.377Z,98960.33
2018-12-09T13:13:37.264Z,98953.52
2018-12-09T13:16:06.200Z,98969.98
2018-12-09T13:18:35.080Z,98983.97
2018-12-09T13:21:04.019Z,98988.95
2018-12-09T13:23:32.909Z,98999.27
2018-12-09T13:26:01.824Z,99007.44
2018-12-09T13:28:30.715Z,99009.60
2018-12-09T13:30:59.663Z,99016.92
2018-12-09T13:33:28.572Z,99024.06
2018-12-09T13:35:57.509Z,99029.17
2018-12-09T13:38:26.451Z,99033.49
2018-12-09T13:40:55.367Z,99032.44
2018-12-09T13:43:24.277Z,99032.79
2018-12-09T13:45:53.371Z,99039.43
2018-12-09T13:48:22.275Z,99039.39
2018-12-09T13:50:51.452Z,99040.55
2018-12-09T13:53:20.448Z,99032.48
2018-12-09T13:55:49.458Z,99037.73
2018-12-09T13:58:18.348Z,99041.92
2018-12-09T14:00:47.293Z,99056.55
2018-12-09T14:03:16.172Z,99058.58
2018-12-09T14:05:45.119Z,99053.23
2018-12-09T14:08:14.012Z,99063.75
2018-12-09T14:10:42.967Z,99083.85
2018-12-09T14:13:11.884Z,99090.86
2018-12-09T14:15:40.803Z,99087.39
2018-12-09T14:18:09.867Z,99098.85
2018-12-09T14:20:38.780Z,99112.19
2018-12-09T14:23:07.743Z,99111.51
2018-12-09T14:25:36.745Z,99113.48
2018-12-09T14:28:05.696Z,99124.51
2018-12-09T14:30:34.743Z,99124.13
2018-12-09T14:33:03.711Z,99129.16
2018-12-09T14:35:32.777Z,99138.64
2018-12-09T14:38:01.799Z,99140.81
2018-12-09T14:40:30.788Z,99150.45
2018-12-09T14:42:59.998Z,99149.84
2018-12-09T14:45:29.031Z,99151.17
2018-12-09T14:47:57.944Z,99159.83
2018-12-09T14:53:09.175Z,99153.13
2018-12-09T14:55:38.112Z,99163.47
2018-12-09T14:58:07.061Z,99151.47
2018-12-09T15:00:35.951Z,99161.31
2018-12-09T15:03:04.900Z,99179.63
2018-12-09T15:05:33.805Z,99186.48
2018-12-09T15:08:02.771Z,99193.66
2018-12-09T15:10:31.675Z,99206.80
2018-12-09T15:13:00.614Z,99204.77
2018-12-09T15:15:29.553Z,99212.28
2018-12-09T15:17:58.547Z,99219.88
2018-12-09T15:20:27.450Z,99230.19
2018-12-09T15:22:56.469Z,99224.47
2018-12-09T15:25:25.394Z,99219.55
2018-12-09T15:27:54.366Z,99236.29
2018-12-09T15:30:23.309Z,99247.00
2018-12-09T15:32:52.718Z,99256.45
2018-12-09T15:35:22.107Z,99260.67
2018-12-09T15:37:51.231Z,99274.65
2018-12-09T15:40:21.532Z,99289.69
2018-12-09T15:42:50.664Z,99307.06
2018-12-09T15:45:19.632Z,99304.59
2018-12-09T15:47:48.532Z,99316.09
2018-12-09T15:50:17.580Z,99324.65
2018-12-09T15:52:46.492Z,99327.87
2018-12-09T15:55:15.434Z,99338.25
2018-12-09T15:57:44.324Z,99355.34
2018-12-09T16:00:13.269Z,99363.02
2018-12-09T16:02:42.218Z,99359.42
2018-12-09T16:05:11.172Z,99362.01
2018-12-09T16:07:40.128Z,99379.02
2018-12-09T16:10:10.453Z,99377.48
2018-12-09T16:12:39.428Z,99381.63
2018-12-09T16:15:08.428Z,99382.92
2018-12-09T16:17:37.432Z,99390.73
2018-12-09T16:20:07.062Z,99406.23
2018-12-09T16:22:35.952Z,99411.31
2018-12-09T16:25:04.912Z,99408.00
2018-12-09T16:27:33.799Z,99408.87
2018-12-09T16:30:02.779Z,99421.52
2018-12-09T16:32:31.758Z,99417.97
2018-12-09T16:35:00.689Z,99427.27
2018-12-09T16:37:29.588Z,99430.44
2018-12-09T16:39:58.539Z,99444.45
2018-12-09T16:42:27.419Z,99454.46
2018-12-09T16:44:56.354Z,99462.69
2018-12-09T16:47:25.236Z,99473.77
2018-12-09T16:49:54.150Z,99483.39
2018-12-09T16:52:23.030Z,99483.05
2018-12-09T16:54:52.248Z,99485.90
2018-12-09T16:57:21.159Z,99492.39
2018-12-09T16:59:50.182Z,99502.05
2018-12-09T17:02:19.344Z,99503.47
2018-12-09T17:04:48.444Z,99515.88
2018-12-09T17:07:17.399Z,99513.99
2018-12-09T17:09:46.381Z,99511.30
2018-12-09T17:12:15.537Z,99517.18
2018-12-09T17:14:44.444Z,99525.17
2018-12-09T17:17:13.491Z,99526.23
2018-12-09T17:19:42.613Z,99552.63
2018-12-09T17:22:11.573Z,99555.53
2018-12-09T17:24:40.476Z,99563.88
2018-12-09T17:27:09.441Z,99578.09
2018-12-09T17:29:38.368Z,99564.91
2018-12-09T17:32:07.340Z,99572.69
2018-12-09T17:34:36.334Z,99575.98
2018-12-09T17:37:05.303Z,99583.32
2018-12-09T17:39:34.349Z,99583.69
2018-12-09T17:42:03.471Z,99590.80
2018-12-09T17:44:32.585Z,99602.74
2018-12-09T17:47:01.740Z,99615.98
2018-12-09T17:49:30.903Z,99629.52
2018-12-09T17:51:59.972Z,99634.25
2018-12-09T17:54:29.115Z,99640.90
2018-12-09T17:56:58.331Z,99644.16
2018-12-09T17:59:27.694Z,99652.51
2018-12-09T18:01:56.724Z,99651.67
2018-12-09T18:04:25.663Z,99660.48
2018-12-09T18:06:54.657Z,99672.35
2018-12-09T18:09:23.590Z,99682.98
2018-12-09T18:11:52.548Z,99686.03
2018-12-09T18:14:21.445Z,99681.98
2018-12-09T18:16:50.400Z,99690.31
2018-12-09T18:19:19.295Z,99696.45
2018-12-09T18:21:48.258Z,99703.12
2018-12-09T18:24:17.406Z,99702.69
2018-12-09T18:26:46.352Z,99713.02
2018-12-09T18:29:15.273Z,99725.67
2018-12-09T18:31:44.283Z,99730.77
2018-12-09T18:34:13.300Z,99734.64
2018-12-09T18:36:42.207Z,99743.89
2018-12-09T18:39:11.402Z,99757.08
2018-12-09T18:41:40.731Z,99765.69
2018-12-09T18:44:10.129Z,99760.97
2018-12-09T18:46:39.323Z,99772.43
2018-12-09T18:49:08.536Z,99779.32
2018-12-09T18:51:37.649Z,99790.12
2018-12-09T18:54:06.964Z,99784.84
2018-12-09T18:56:36.107Z,99799.89
2018-12-09T18:59:05.342Z,99791.16
2018-12-09T19:01:34.569Z,99804.75
2018-12-09T19:04:03.747Z,99812.69
2018-12-09T19:06:33.040Z,99821.14
2018-12-09T19:09:02.256Z,99824.19
2018-12-09T19:11:31.499Z,99813.15
2018-12-09T19:14:00.665Z,99834.47
2018-12-09T19:16:29.920Z,99833.03
2018-12-09T19:18:59.056Z,99836.81
2018-12-09T19:21:28.391Z,99839.52
2018-12-09T19:23:57.622Z,99836.64
2018-12-09T19:26:26.712Z,99847.17
2018-12-09T19:28:55.835Z,99855.81
2018-12-09T19:31:25.032Z,99861.95
2018-12-09T19:33:54.332Z,99854.11
2018-12-09T19:36:23.512Z,99857.54
2018-12-09T19:38:52.825Z,99852.05
2018-12-09T19:41:21.872Z,99868.19
2018-12-09T19:43:50.986Z,99871.54
2018-12-09T19:46:20.179Z,99885.97
2018-12-09T19:48:49.325Z,99892.41
2018-12-09T19:51:18.468Z,99901.94
2018-12-09T19:53:47.624Z,99904.76
2018-12-09T19:56:16.871Z,99913.05
2018-12-09T19:58:46.002Z,99912.38
2018-12-09T20:01:15.296Z,99922.52
2018-12-09T20:03:44.636Z,99922.38
2018-12-09T20:06:13.766Z,99934.26
2018-12-09T20:08:42.875Z,99936.55
2018-12-09T20:11:12.031Z,99938.70
2018-12-09T20:13:41.289Z,99943.14
2018-12-09T20:16:10.563Z,99941.73
2018-12-09T20:18:40.089Z,99945.77
2018-12-09T20:21:09.692Z,99948.77
2018-12-09T20:23:39.334Z,99945.28
2018-12-09T20:26:09.019Z,99946.48
2018-12-09T20:28:38.330Z,99956.31
2018-12-09T20:31:07.588Z,99985.34
2018-12-09T20:33:36.723Z,99987.22
2018-12-09T20:36:05.896Z,100015.31
2018-12-09T20:38:35.023Z,100038.65
2018-12-09T20:41:04.195Z,100066.58
2018-12-09T20:43:33.536Z,100053.08
2018-12-09T20:46:02.665Z,100034.63
2018-12-09T20:48:31.812Z,100053.48
2018-12-09T20:51:01.044Z,100057.95
2018-12-09T20:53:30.403Z,100055.80
2018-12-09T20:55:59.805Z,100065.66
2018-12-09T20:58:29.036Z,100068.67
2018-12-09T21:00:58.232Z,100071.67
2018-12-09T21:03:27.691Z,100088.20
2018-12-09T21:05:56.911Z,100082.03
2018-12-09T21:08:26.708Z,100091.45
2018-12-09T21:10:56.289Z,100090.73
2018-12-09T21:13:25.815Z,100102.91
2018-12-09T21:15:55.376Z,100115.44
2018-12-09T21:18:24.642Z,100112.32
2018-12-09T21:20:53.952Z,100104.72
2018-12-09T21:23:23.151Z,100105.16
2018-12-09T21:25:52.330Z,100112.16
2018-12-09T21:28:21.582Z,100115.41
2018-12-09T21:30:50.765Z,100121.56
2018-12-09T21:33:19.813Z,100127.92
2018-12-09T21:35:48.944Z,100120.66
2018-12-09T21:38:18.223Z,100128.99
2018-12-09T21:40:47.525Z,100133.11
2018-12-09T21:43:16.788Z,100148.15
2018-12-09T21:45:46.034Z,100157.56
2018-12-09T21:48:14.963Z,100147.28
2018-12-09T21:50:43.888Z,100155.47
2018-12-09T21:53:13.007Z,100167.37
2018-12-09T21:55:47.381Z,100164.73
2018-12-09T21:58:16.468Z,100159.17
2018-12-09T22:00:45.760Z,100173.65
2018-12-09T22:03:14.891Z,100174.98
2018-12-09T22:05:44.115Z,100182.58
2018-12-09T22:08:13.593Z,100191.62
2018-12-09T22:10:42.985Z,100186.20
2018-12-09T22:13:12.280Z,100192.56
2018-12-09T22:15:41.773Z,100203.18
2018-12-09T22:18:10.984Z,100204.99
2018-12-09T22:20:40.081Z,100212.72
2018-12-09T22:23:09.225Z,100212.95
2018-12-09T22:25:38.552Z,100214.15
2018-12-09T22:28:07.668Z,100220.07
2018-12-09T22:30:37.384Z,100229.82
2018-12-09T22:33:06.888Z,100225.48
2018-12-09T22:35:36.122Z,100231.88
2018-12-09T22:38:05.416Z,100242.14
2018-12-09T22:40:34.640Z,100239.72
2018-12-09T22:43:03.965Z,100251.90
2018-12-09T22:45:33.234Z,100247.06
2018-12-09T22:48:02.381Z,100241.13
2018-12-09T22:50:31.536Z,100244.88
2018-12-09T22:53:00.669Z,100246.44
2018-12-09T22:55:30.059Z,100243.19
2018-12-09T22:57:59.338Z,100251.41
2018-12-09T23:00:29.651Z,100260.69
2018-12-09T23:03:05.068Z,100259.73
2018-12-09T23:05:34.278Z,100264.57
2018-12-09T23:08:03.646Z,100264.91
2018-12-09T23:10:32.919Z,100276.69
2018-12-09T23:13:02.327Z,100274.48
2018-12-09T23:15:31.444Z,100276.56
2018-12-09T23:18:00.728Z,100274.40
2018-12-09T23:20:29.858Z,100284.64
2018-12-09T23:22:59.088Z,100278.77
2018-12-09T23:25:28.325Z,100272.74
2018-12-09T23:27:57.266Z,100290.10
2018-12-09T23:30:26.377Z,100293.14
2018-12-09T23:32:55.547Z,100312.55
2018-12-09T23:35:24.731Z,100317.02
2018-12-09T23:37:54.088Z,100315.93
2018-12-09T23:40:23.373Z,100328.50
2018-12-09T23:42:52.677Z,100334.50
2018-12-09T23:45:22.065Z,100338.63
2018-12-09T23:47:51.436Z,100344.80
2018-12-09T23:50:20.788Z,100351.33
2018-12-09T23:52:50.197Z,100362.33
2018-12-09T23:55:19.339Z,100359.17
2018-12-09T23:57:48.608Z,100355.75
